createdAt,value
2023-01-03T00:01:59.157Z,10.90
2023-01-03T00:04:25.719Z,14.80
2023-01-03T00:06:53.550Z,14.00
2023-01-03T00:09:22.578Z,13.00
2023-01-03T00:12:09.388Z,13.68
2023-01-03T00:14:38.329Z,7.15
2023-01-03T00:17:06.378Z,9.32
2023-01-03T00:19:38.728Z,9.10
2023-01-03T00:22:05.558Z,6.75
2023-01-03T00:24:32.794Z,7.85
2023-01-03T00:26:59.757Z,3.20
2023-01-03T00:29:27.010Z,7.95
2023-01-03T00:31:53.730Z,2.42
2023-01-03T00:34:20.202Z,10.23
2023-01-03T00:36:46.734Z,8.85
2023-01-03T00:39:13.373Z,8.60
2023-01-03T00:41:40.264Z,9.02
2023-01-03T00:44:06.830Z,9.75
2023-01-03T00:46:33.616Z,7.45
2023-01-03T00:49:00.212Z,9.20
2023-01-03T00:51:28.937Z,6.00
2023-01-03T00:53:57.545Z,4.43
2023-01-03T00:56:27.802Z,3.75
2023-01-03T00:58:54.964Z,4.22
2023-01-03T01:01:26.112Z,8.02
2023-01-03T01:03:56.804Z,4.85
2023-01-03T01:06:26.827Z,4.85
2023-01-03T01:08:54.965Z,6.70
2023-01-03T01:11:22.048Z,3.33
2023-01-03T01:13:49.626Z,5.70
2023-01-03T01:16:19.663Z,2.40
2023-01-03T01:18:48.527Z,2.55
2023-01-03T01:21:17.814Z,3.35
2023-01-03T01:23:45.866Z,5.53
2023-01-03T01:26:18.462Z,6.70
2023-01-03T01:28:45.087Z,4.43
2023-01-03T01:31:15.154Z,5.82
2023-01-03T01:33:41.631Z,7.22
2023-01-03T01:36:42.173Z,6.70
2023-01-03T01:39:13.179Z,6.25
2023-01-03T01:41:59.107Z,2.25
2023-01-03T01:44:49.697Z,4.78
2023-01-03T01:47:47.133Z,4.07
2023-01-03T01:50:31.720Z,6.97
2023-01-03T01:53:11.710Z,5.47
2023-01-03T01:55:45.323Z,5.68
2023-01-03T01:58:12.718Z,3.85
2023-01-03T02:00:41.058Z,4.43
2023-01-03T02:03:07.869Z,5.68
2023-01-03T02:05:37.806Z,6.82
2023-01-03T02:08:05.065Z,6.38
2023-01-03T02:10:58.844Z,3.40
2023-01-03T02:13:56.185Z,4.32
2023-01-03T02:17:00.369Z,2.35
2023-01-03T02:19:51.249Z,6.18
2023-01-03T02:22:32.933Z,7.15
2023-01-03T02:25:14.757Z,3.40
2023-01-03T02:28:00.170Z,7.00
2023-01-03T02:30:37.455Z,4.70
2023-01-03T02:33:41.884Z,4.07
2023-01-03T02:36:26.671Z,3.75
2023-01-03T02:38:55.747Z,6.40
2023-01-03T02:41:33.964Z,4.82
2023-01-03T02:44:10.578Z,4.57
2023-01-03T02:47:06.528Z,5.03
2023-01-03T02:49:44.060Z,8.48
2023-01-03T02:52:33.058Z,8.50
2023-01-03T02:55:10.072Z,6.90
2023-01-03T02:57:42.357Z,5.57
2023-01-03T03:00:14.961Z,4.28
2023-01-03T03:02:48.557Z,5.53
2023-01-03T03:05:22.774Z,6.90
2023-01-03T03:07:49.408Z,5.65
2023-01-03T03:10:34.513Z,6.28
2023-01-03T03:13:14.786Z,4.80
2023-01-03T03:16:07.311Z,8.52
2023-01-03T03:18:44.083Z,9.15
2023-01-03T03:21:34.296Z,9.02
2023-01-03T03:24:27.906Z,5.68
2023-01-03T03:26:56.601Z,12.13
2023-01-03T03:29:23.165Z,10.80
2023-01-03T03:31:52.119Z,3.00
2023-01-03T03:34:25.775Z,10.68
2023-01-03T03:37:03.127Z,11.60
2023-01-03T03:39:51.019Z,11.15
2023-01-03T03:42:46.978Z,14.63
2023-01-03T03:45:13.419Z,13.15
2023-01-03T03:47:53.038Z,12.80
2023-01-03T03:50:35.821Z,10.07
2023-01-03T03:53:06.909Z,11.52
2023-01-03T03:55:36.696Z,12.10
2023-01-03T03:58:07.837Z,11.00
2023-01-03T04:00:38.766Z,13.15
2023-01-03T04:03:07.056Z,13.85
2023-01-03T04:05:39.276Z,14.00
2023-01-03T04:08:06.061Z,11.65
2023-01-03T04:10:37.492Z,8.10
2023-01-03T04:13:04.753Z,16.33
2023-01-03T04:15:31.241Z,4.07
2023-01-03T04:17:57.702Z,14.25
2023-01-03T04:20:24.152Z,8.15
2023-01-03T04:22:50.648Z,15.52
2023-01-03T04:25:17.119Z,13.50
2023-01-03T04:27:43.572Z,12.55
2023-01-03T04:30:11.513Z,15.02
2023-01-03T04:32:38.391Z,14.25
2023-01-03T04:35:05.319Z,15.80
2023-01-03T04:37:31.898Z,17.73
2023-01-03T04:39:58.413Z,18.05
2023-01-03T04:42:43.562Z,17.02
2023-01-03T04:45:10.876Z,18.65
2023-01-03T04:47:37.326Z,17.73
2023-01-03T04:50:04.048Z,20.42
2023-01-03T04:52:30.606Z,21.48
2023-01-03T04:54:57.030Z,21.20
2023-01-03T04:57:23.489Z,21.35
2023-01-03T04:59:49.937Z,20.83
2023-01-03T05:02:16.441Z,21.00
2023-01-03T05:04:43.153Z,19.27
2023-01-03T05:07:09.718Z,17.02
2023-01-03T05:09:36.212Z,17.95
2023-01-03T05:12:02.696Z,15.52
2023-01-03T05:14:29.125Z,14.90
2023-01-03T05:16:55.619Z,15.75
2023-01-03T05:19:22.135Z,13.60
2023-01-03T05:22:07.413Z,13.57
2023-01-03T05:24:56.704Z,14.60
2023-01-03T05:27:23.734Z,12.50
2023-01-03T05:29:52.826Z,13.90
2023-01-03T05:32:19.410Z,12.82
2023-01-03T05:34:45.914Z,13.40
2023-01-03T05:37:12.543Z,12.82
2023-01-03T05:39:39.023Z,11.35
2023-01-03T05:42:05.750Z,13.05
2023-01-03T05:44:34.186Z,13.00
2023-01-03T05:47:03.294Z,13.50
2023-01-03T05:49:29.833Z,13.57
2023-01-03T05:51:56.507Z,13.07
2023-01-03T05:54:23.020Z,13.35
2023-01-03T05:56:51.076Z,12.55
2023-01-03T05:59:18.727Z,14.18
2023-01-03T06:01:45.413Z,14.27
2023-01-03T06:04:12.126Z,14.75
2023-01-03T06:06:38.664Z,14.52
2023-01-03T06:09:05.446Z,15.10
2023-01-03T06:11:32.007Z,15.15
2023-01-03T06:13:58.496Z,15.02
2023-01-03T06:16:43.657Z,14.77
2023-01-03T06:19:10.271Z,13.18
2023-01-03T06:21:37.074Z,15.25
2023-01-03T06:24:04.433Z,16.27
2023-01-03T06:26:31.012Z,16.15
2023-01-03T06:28:58.508Z,16.58
2023-01-03T06:31:25.065Z,14.65
2023-01-03T06:33:51.737Z,14.88
2023-01-03T06:36:20.471Z,14.65
2023-01-03T06:38:46.964Z,12.15
2023-01-03T06:41:14.375Z,11.70
2023-01-03T06:43:41.821Z,11.80
2023-01-03T06:46:29.072Z,13.07
2023-01-03T06:49:14.115Z,10.05
2023-01-03T06:51:59.603Z,11.45
2023-01-03T06:54:29.420Z,10.43
2023-01-03T06:56:55.911Z,10.38
2023-01-03T06:59:22.885Z,10.98
2023-01-03T07:01:51.213Z,10.75
2023-01-03T07:04:18.750Z,9.82
2023-01-03T07:06:45.440Z,10.00
2023-01-03T07:09:12.386Z,11.18
2023-01-03T07:11:39.673Z,11.90
2023-01-03T07:14:07.893Z,11.10
2023-01-03T07:16:39.888Z,12.45
2023-01-03T07:19:08.521Z,12.05
2023-01-03T07:21:35.729Z,10.40
2023-01-03T07:24:03.906Z,11.30
2023-01-03T07:26:32.190Z,11.00
2023-01-03T07:28:59.867Z,9.52
2023-01-03T07:31:26.549Z,8.85
2023-01-03T07:33:53.453Z,10.18
2023-01-03T07:36:21.287Z,9.55
2023-01-03T07:38:48.135Z,9.05
2023-01-03T07:41:15.636Z,9.95
2023-01-03T07:43:47.999Z,10.90
2023-01-03T07:46:23.397Z,9.80
2023-01-03T07:48:52.054Z,9.55
2023-01-03T07:51:20.814Z,9.60
2023-01-03T07:53:50.992Z,8.35
2023-01-03T07:56:20.002Z,8.35
2023-01-03T07:58:47.992Z,9.93
2023-01-03T08:01:17.297Z,11.48
2023-01-03T08:03:44.780Z,11.52
2023-01-03T08:06:23.066Z,9.90
2023-01-03T08:09:10.324Z,9.45
2023-01-03T08:11:55.767Z,9.95
2023-01-03T08:14:26.219Z,9.52
2023-01-03T08:16:53.876Z,8.57
2023-01-03T08:19:20.394Z,8.57
2023-01-03T08:21:46.879Z,7.72
2023-01-03T08:24:13.299Z,7.57
2023-01-03T08:26:39.838Z,10.85
2023-01-03T08:29:07.144Z,12.90
2023-01-03T08:31:37.666Z,10.73
2023-01-03T08:34:13.787Z,9.35
2023-01-03T08:36:49.625Z,11.15
2023-01-03T08:39:20.772Z,8.88
2023-01-03T08:41:52.424Z,9.80
2023-01-03T08:44:18.894Z,10.77
2023-01-03T08:46:51.247Z,10.63
2023-01-03T08:49:19.172Z,10.00
2023-01-03T08:51:45.862Z,9.15
2023-01-03T08:54:12.449Z,10.77
2023-01-03T08:56:39.772Z,8.35
2023-01-03T08:59:06.581Z,9.20
2023-01-03T09:01:33.788Z,13.75
2023-01-03T09:04:00.438Z,10.20
2023-01-03T09:06:27.115Z,9.75
2023-01-03T09:08:53.562Z,8.80
2023-01-03T09:11:20.071Z,7.43
2023-01-03T09:13:46.565Z,8.38
2023-01-03T09:16:14.009Z,6.60
2023-01-03T09:18:41.315Z,6.80
2023-01-03T09:21:08.311Z,6.90
2023-01-03T09:23:36.273Z,6.28
2023-01-03T09:26:03.111Z,3.70
2023-01-03T09:28:30.122Z,5.60
2023-01-03T09:30:57.397Z,5.70
2023-01-03T09:33:24.065Z,6.03
2023-01-03T09:35:52.862Z,1.88
2023-01-03T09:38:19.570Z,4.43
2023-01-03T09:40:47.355Z,4.93
2023-01-03T09:43:24.992Z,4.70
2023-01-03T09:46:01.322Z,2.03
2023-01-03T09:48:33.440Z,6.05
2023-01-03T09:51:21.217Z,2.97
2023-01-03T09:54:05.585Z,1.95
2023-01-03T09:56:51.000Z,6.10
2023-01-03T09:59:36.819Z,3.15
2023-01-03T10:02:40.385Z,2.45
2023-01-03T10:05:32.834Z,2.13
2023-01-03T10:08:11.226Z,3.10
2023-01-03T10:10:56.412Z,3.58
2023-01-03T10:14:00.667Z,4.45
2023-01-03T10:16:34.499Z,4.22
2023-01-03T10:19:11.950Z,4.57
2023-01-03T10:21:44.805Z,2.63
2023-01-03T10:24:24.674Z,4.07
2023-01-03T10:27:04.965Z,2.95
2023-01-03T10:29:31.445Z,2.53
2023-01-03T10:31:57.880Z,3.25
2023-01-03T10:34:24.551Z,1.75
2023-01-03T10:36:50.987Z,1.55
2023-01-03T10:39:28.820Z,1.70
2023-01-03T10:41:58.734Z,2.53
2023-01-03T10:44:30.479Z,1.48
2023-01-03T10:47:09.932Z,1.95
2023-01-03T10:49:36.438Z,0.80
2023-01-03T10:52:14.439Z,3.13
2023-01-03T10:54:40.867Z,3.80
2023-01-03T10:57:07.444Z,2.72
2023-01-03T10:59:34.904Z,2.75
2023-01-03T11:02:15.050Z,2.40
2023-01-03T11:04:42.983Z,3.50
2023-01-03T11:07:09.473Z,2.72
2023-01-03T11:09:50.428Z,2.30
2023-01-03T11:12:40.300Z,2.03
2023-01-03T11:15:25.389Z,1.42
2023-01-03T11:17:58.174Z,1.27
2023-01-03T11:20:41.219Z,2.10
2023-01-03T11:23:28.263Z,2.03
2023-01-03T11:26:06.729Z,1.58
2023-01-03T11:29:08.893Z,1.08
2023-01-03T11:31:49.188Z,2.20
2023-01-03T11:35:20.902Z,2.50
2023-01-03T11:37:35.033Z,3.25
2023-01-03T11:40:42.715Z,1.33
2023-01-03T11:43:18.522Z,2.30
2023-01-03T11:45:49.157Z,1.67
2023-01-03T11:48:33.360Z,2.80
2023-01-03T11:51:18.961Z,4.30
2023-01-03T11:56:28.744Z,3.20
2023-01-03T11:58:58.197Z,2.80
2023-01-03T12:01:41.606Z,2.97
2023-01-03T12:04:17.132Z,2.28
2023-01-03T12:06:51.442Z,1.60
2023-01-03T12:09:36.698Z,4.28
2023-01-03T12:12:31.696Z,2.28
2023-01-03T12:15:02.770Z,1.70
2023-01-03T12:17:38.782Z,3.00
2023-01-03T12:20:16.756Z,4.10
2023-01-03T12:22:47.860Z,2.55
2023-01-03T12:25:37.786Z,4.50
2023-01-03T12:28:10.427Z,2.88
2023-01-03T12:30:42.950Z,2.40
2023-01-03T12:33:25.351Z,3.33
2023-01-03T12:36:22.645Z,3.10
2023-01-03T12:39:01.783Z,1.88
2023-01-03T12:41:46.135Z,2.80
2023-01-03T12:44:24.715Z,1.73
2023-01-03T12:46:55.070Z,3.83
2023-01-03T12:49:28.875Z,2.45
2023-01-03T12:51:55.321Z,1.90
2023-01-03T12:54:27.907Z,3.47
2023-01-03T12:57:30.126Z,2.78
2023-01-03T13:00:11.009Z,3.20
2023-01-03T13:02:49.959Z,3.90
2023-01-03T13:05:20.344Z,3.33
2023-01-03T13:07:55.601Z,2.22
2023-01-03T13:12:55.260Z,1.38
2023-01-03T13:15:36.569Z,1.13
2023-01-03T13:18:21.989Z,0.88
2023-01-03T13:20:57.962Z,1.52
2023-01-03T13:23:35.231Z,1.02
2023-01-03T13:26:07.395Z,1.00
2023-01-03T13:28:36.378Z,1.27
2023-01-03T13:31:18.131Z,1.83
2023-01-03T13:33:55.555Z,1.83
2023-01-03T13:36:23.787Z,0.52
2023-01-03T13:38:51.077Z,1.92
2023-01-03T13:41:37.669Z,0.73
2023-01-03T13:44:21.165Z,1.55
2023-01-03T13:46:49.868Z,0.80
2023-01-03T13:49:25.657Z,1.55
2023-01-03T13:51:54.728Z,2.13
2023-01-03T13:54:21.106Z,1.98
2023-01-03T13:56:47.664Z,1.73
2023-01-03T13:59:14.038Z,2.17
2023-01-03T14:01:59.118Z,1.02
2023-01-03T14:04:40.763Z,1.45
2023-01-03T14:07:48.461Z,0.43
2023-01-03T14:10:45.510Z,0.77
2023-01-03T14:13:27.223Z,1.55
2023-01-03T14:16:23.360Z,1.75
2023-01-03T14:19:18.105Z,1.50
2023-01-03T14:21:53.256Z,1.38
2023-01-03T14:24:26.562Z,1.67
2023-01-03T14:26:54.352Z,2.35
2023-01-03T14:29:23.573Z,1.98
2023-01-03T14:31:55.747Z,1.38
2023-01-03T14:34:27.731Z,1.52
2023-01-03T14:37:00.985Z,1.73
2023-01-03T14:41:59.958Z,1.95
2023-01-03T14:44:28.533Z,1.40
2023-01-03T14:46:58.699Z,0.95
2023-01-03T14:49:50.232Z,0.90
2023-01-03T14:52:38.381Z,1.65
2023-01-03T14:55:08.201Z,1.30
2023-01-03T14:57:39.046Z,1.15
2023-01-03T15:00:07.860Z,1.60
2023-01-03T15:02:38.578Z,0.98
2023-01-03T15:05:35.301Z,0.98
2023-01-03T15:08:28.105Z,1.67
2023-01-03T15:10:56.730Z,2.05
2023-01-03T15:13:29.584Z,1.10
2023-01-03T15:15:58.846Z,2.13
2023-01-03T15:18:28.505Z,2.75
2023-01-03T15:20:56.463Z,1.80
2023-01-03T15:23:35.646Z,1.48
2023-01-03T15:26:02.517Z,1.75
2023-01-03T15:28:48.569Z,2.17
2023-01-03T15:31:24.077Z,2.40
2023-01-03T15:34:18.397Z,2.05
2023-01-03T15:36:49.271Z,1.42
2023-01-03T15:39:19.569Z,1.50
2023-01-03T15:42:42.342Z,1.58
2023-01-03T15:44:52.573Z,0.88
2023-01-03T15:47:20.692Z,1.73
2023-01-03T15:49:51.851Z,1.50
2023-01-03T15:52:19.090Z,2.55
2023-01-03T15:54:46.885Z,1.70
2023-01-03T15:57:17.679Z,1.23
2023-01-03T15:59:44.267Z,2.40
2023-01-03T16:02:16.870Z,2.08
2023-01-03T16:04:45.506Z,2.38
2023-01-03T16:07:12.555Z,1.95
2023-01-03T16:09:39.128Z,1.27
2023-01-03T16:12:11.417Z,1.33
2023-01-03T16:14:40.871Z,2.13
2023-01-03T16:17:08.590Z,1.30
2023-01-03T16:19:35.166Z,1.35
2023-01-03T16:24:51.620Z,0.93
2023-01-03T16:27:21.916Z,1.90
2023-01-03T16:29:48.457Z,1.70
2023-01-03T16:32:20.865Z,2.17
2023-01-03T16:34:47.790Z,1.73
2023-01-03T16:37:14.287Z,2.20
2023-01-03T16:39:47.463Z,2.58
2023-01-03T16:42:15.147Z,3.20
2023-01-03T16:44:44.022Z,1.80
2023-01-03T16:47:24.438Z,2.95
2023-01-03T16:49:55.257Z,2.92
2023-01-03T16:52:26.150Z,2.55
2023-01-03T16:54:53.836Z,1.95
2023-01-03T16:57:21.960Z,1.48
2023-01-03T16:59:49.082Z,1.55
2023-01-03T17:02:16.030Z,2.10
2023-01-03T17:04:42.711Z,2.58
2023-01-03T17:07:19.175Z,3.50
2023-01-03T17:09:47.951Z,1.98
2023-01-03T17:12:23.007Z,1.13
2023-01-03T17:14:50.280Z,2.85
2023-01-03T17:17:19.386Z,2.13
2023-01-03T17:22:32.892Z,2.50
2023-01-03T17:24:59.421Z,2.80
2023-01-03T17:27:32.028Z,3.78
2023-01-03T17:30:02.933Z,0.98
2023-01-03T17:32:30.047Z,1.60
2023-01-03T17:34:56.570Z,3.10
2023-01-03T17:37:23.905Z,1.98
2023-01-03T17:39:57.047Z,1.63
2023-01-03T17:42:25.593Z,2.67
2023-01-03T17:45:11.179Z,3.30
2023-01-03T17:47:59.783Z,1.40
2023-01-03T17:50:29.234Z,3.00
2023-01-03T17:52:58.623Z,1.02
2023-01-03T17:55:28.883Z,2.72
2023-01-03T17:57:57.133Z,2.20
2023-01-03T18:00:27.042Z,2.28
2023-01-03T18:02:55.384Z,2.13
2023-01-03T18:05:28.020Z,2.90
2023-01-03T18:08:01.129Z,4.22
2023-01-03T18:10:32.212Z,4.68
2023-01-03T18:12:58.983Z,2.55
2023-01-03T18:15:25.500Z,3.72
2023-01-03T18:17:52.592Z,5.22
2023-01-03T18:20:19.685Z,4.53
2023-01-03T18:22:47.200Z,4.15
2023-01-03T18:25:24.589Z,3.80
2023-01-03T18:27:56.386Z,2.70
2023-01-03T18:30:22.919Z,2.08
2023-01-03T18:32:49.531Z,1.05
2023-01-03T18:35:22.498Z,2.38
2023-01-03T18:37:54.737Z,1.35
2023-01-03T18:40:27.644Z,2.90
2023-01-03T18:43:10.754Z,3.03
2023-01-03T18:45:39.178Z,2.90
2023-01-03T18:48:06.096Z,2.70
2023-01-03T18:50:33.163Z,0.80
2023-01-03T18:53:04.086Z,2.10
2023-01-03T18:55:33.652Z,3.75
2023-01-03T18:58:07.744Z,2.33
2023-01-03T19:00:34.286Z,3.97
2023-01-03T19:03:01.155Z,2.35
2023-01-03T19:05:27.873Z,3.03
2023-01-03T19:07:54.638Z,2.10
2023-01-03T19:10:27.313Z,2.42
2023-01-03T19:12:56.522Z,1.55
2023-01-03T19:15:29.169Z,2.17
2023-01-03T19:18:01.293Z,2.25
2023-01-03T19:20:28.061Z,2.08
2023-01-03T19:22:55.169Z,2.78
2023-01-03T19:25:30.219Z,1.58
2023-01-03T19:28:02.097Z,2.38
2023-01-03T19:30:37.781Z,1.98
2023-01-03T19:33:06.782Z,2.75
2023-01-03T19:35:33.723Z,2.47
2023-01-03T19:38:00.233Z,2.00
2023-01-03T19:40:30.977Z,2.45
2023-01-03T19:42:58.855Z,1.98
2023-01-03T19:45:26.368Z,2.10
2023-01-03T19:47:53.779Z,1.65
2023-01-03T19:50:28.581Z,3.05
2023-01-03T19:52:55.948Z,2.92
2023-01-03T19:55:29.324Z,1.02
2023-01-03T19:57:57.999Z,2.25
2023-01-03T20:00:32.140Z,1.95
2023-01-03T20:03:03.219Z,1.55
2023-01-03T20:05:35.404Z,2.03
2023-01-03T20:08:11.234Z,2.40
2023-01-03T20:10:40.425Z,2.40
2023-01-03T20:13:06.994Z,2.08
2023-01-03T20:15:40.654Z,2.35
2023-01-03T20:18:31.459Z,3.60
2023-01-03T20:21:01.700Z,1.38
2023-01-03T20:23:32.984Z,2.10
2023-01-03T20:25:59.517Z,2.88
2023-01-03T20:28:29.563Z,1.83
2023-01-03T20:30:57.558Z,3.00
2023-01-03T20:33:25.329Z,2.53
2023-01-03T20:36:16.075Z,1.15
2023-01-03T20:38:44.415Z,2.03
2023-01-03T20:41:13.162Z,1.02
2023-01-03T20:43:39.669Z,2.78
2023-01-03T20:46:06.554Z,1.85
2023-01-03T20:48:33.110Z,2.17
2023-01-03T20:50:59.609Z,2.65
2023-01-03T20:53:27.103Z,1.40
2023-01-03T20:55:54.102Z,1.23
2023-01-03T20:58:25.203Z,2.30
2023-01-03T21:00:56.714Z,1.50
2023-01-03T21:03:28.322Z,1.52
2023-01-03T21:05:56.188Z,1.38
2023-01-03T21:08:41.416Z,1.17
2023-01-03T21:11:07.901Z,1.92
2023-01-03T21:13:34.403Z,2.13
2023-01-03T21:16:00.880Z,1.05
2023-01-03T21:18:27.641Z,2.03
2023-01-03T21:20:54.115Z,1.35
2023-01-03T21:23:23.322Z,1.55
2023-01-03T21:25:50.069Z,3.17
2023-01-03T21:28:16.543Z,1.77
2023-01-03T21:30:43.251Z,1.83
2023-01-03T21:33:17.106Z,2.03
2023-01-03T21:35:43.662Z,1.90
2023-01-03T21:38:10.884Z,2.22
2023-01-03T21:40:37.469Z,1.67
2023-01-03T21:43:05.036Z,2.03
2023-01-03T21:45:34.752Z,1.60
2023-01-03T21:48:03.147Z,1.33
2023-01-03T21:50:30.645Z,1.98
2023-01-03T21:52:57.811Z,2.17
2023-01-03T21:55:25.102Z,2.17
2023-01-03T21:57:52.048Z,1.13
2023-01-03T22:00:18.966Z,1.90
2023-01-03T22:03:04.618Z,1.23
2023-01-03T22:05:31.611Z,1.00
2023-01-03T22:07:58.156Z,1.13
2023-01-03T22:10:25.156Z,1.70
2023-01-03T22:12:54.321Z,0.68
2023-01-03T22:15:21.452Z,2.28
2023-01-03T22:17:48.279Z,2.53
2023-01-03T22:20:16.952Z,2.47
2023-01-03T22:22:44.766Z,1.67
2023-01-03T22:25:13.968Z,1.33
2023-01-03T22:27:40.416Z,1.30
2023-01-03T22:30:09.269Z,1.85
2023-01-03T22:32:35.757Z,1.70
2023-01-03T22:35:02.369Z,2.30
2023-01-03T22:37:28.871Z,1.05
2023-01-03T22:39:55.430Z,2.05
2023-01-03T22:42:21.934Z,1.42
2023-01-03T22:44:48.736Z,0.98
2023-01-03T22:47:15.948Z,1.55
2023-01-03T22:49:42.629Z,0.98
2023-01-03T22:52:09.162Z,1.77
2023-01-03T22:54:35.707Z,1.15
2023-01-03T22:57:02.377Z,1.70
2023-01-03T22:59:30.435Z,1.45
2023-01-03T23:01:58.130Z,1.60
2023-01-03T23:04:26.460Z,1.33
2023-01-03T23:06:53.866Z,0.82
2023-01-03T23:09:21.463Z,1.70
2023-01-03T23:12:07.722Z,2.03
2023-01-03T23:14:34.364Z,1.02
2023-01-03T23:17:23.744Z,2.03
2023-01-03T23:19:50.327Z,2.55
2023-01-03T23:22:17.435Z,1.40
2023-01-03T23:24:44.006Z,1.38
2023-01-03T23:27:10.491Z,1.20
2023-01-03T23:29:37.097Z,0.98
2023-01-03T23:32:03.758Z,1.73
2023-01-03T23:34:30.482Z,1.42
2023-01-03T23:36:56.974Z,2.22
2023-01-03T23:39:23.549Z,1.60
2023-01-03T23:41:50.077Z,1.80
2023-01-03T23:44:16.858Z,1.38
2023-01-03T23:46:43.429Z,2.13
2023-01-03T23:49:12.349Z,1.20
2023-01-03T23:51:38.928Z,1.80
2023-01-03T23:54:05.728Z,0.88
2023-01-03T23:56:32.316Z,1.95
2023-01-03T23:58:58.853Z,1.90
